Xin Fu 14 — VROG7 — position and weather

sailwx.info

Track history (hours):
 
Tides and Currents Weather Stations Pressure Air Temp Water Temp Dewpoint Dewpoint Depression Visibility Wind Speed Wind Dir Waves Ship Positions

Xin Fu 14

Last reported at 2017-Sep-13 05:23 UTC. Time now 2017-Sep-26 21:52 UTC.
Position N 34°27' W 122°07'.
Warning: this ship's position is 13 days out of date.

Length 300 m; draft 7.5 m.

Type: Cargo ship. MMSI: 434156100.

Date/timePositionNaut miles runAvg speedWind from/ knotsBaromVisibWave heightAir tempDewpointWater temp
2017-Sep-13 05:23N 34°27' W 122°07'615.2
2017-Sep-13 05:00N 34°27' W 122°00'714.9
2017-Sep-13 04:31N 34°27' W 121°51'815.0
2017-Sep-13 04:01N 34°27' W 121°42'815.1
2017-Sep-13 03:30N 34°27' W 121°33'814.7
2017-Sep-13 02:59N 34°27' W 121°23'715.0
2017-Sep-13 02:31N 34°27' W 121°15'714.8
2017-Sep-13 02:01N 34°26' W 121°06'714.8
2017-Sep-13 01:30N 34°26' W 120°57'611.2
2017-Sep-13 01:00N 34°26' W 120°50'5 9.7
2017-Sep-13 00:28N 34°24' W 120°44'5 9.8
2017-Sep-13 00:00N 34°23' W 120°39'5 9.6
2017-Sep-12 23:29N 34°22' W 120°33'510.2
2017-Sep-12 23:00N 34°21' W 120°27'510.2
2017-Sep-12 22:29N 34°19' W 120°21'510.5
2017-Sep-12 22:00N 34°18' W 120°15'510.2
2017-Sep-12 21:30N 34°17' W 120°09'5 9.8
2017-Sep-12 20:58N 34°15' W 120°03'510.0
2017-Sep-12 20:30N 34°14' W 119°57'5 9.9
2017-Sep-12 20:00N 34°13' W 119°52'5 9.9
2017-Sep-12 19:29N 34°11' W 119°46'5 9.9
2017-Sep-12 18:59N 34°10' W 119°40'6 9.7
2017-Sep-12 18:23N 34°08' W 119°33'410.1
2017-Sep-12 18:00N 34°08' W 119°29'612.3
2017-Sep-12 17:31N 34°06' W 119°22'714.4
2017-Sep-12 17:00N 34°03' W 119°13'714.9
2017-Sep-12 16:30N 33°60' W 119°05'713.4
2017-Sep-12 16:00N 33°56' W 118°58'611.9
2017-Sep-12 15:30N 33°53' W 118°52'611.8
2017-Sep-12 15:00N 33°50' W 118°46'612.1
2017-Sep-12 14:30N 33°47' W 118°40'612.1
2017-Sep-12 13:59N 33°44' W 118°33'612.1
2017-Sep-12 13:30N 33°42' W 118°27'612.2
2017-Sep-12 13:00N 33°39' W 118°21'5 9.9
2017-Sep-12 12:31N 33°40' W 118°15'3 6.8
2017-Sep-12 12:01N 33°44' W 118°16'2 3.4
2017-Sep-12 11:31N 33°45' W 118°17'1 1.3
2017-Sep-12 11:01N 33°46' W 118°16'0 0.0
2017-Sep-12 10:31N 33°46' W 118°16'0 0.0
2017-Sep-12 10:00N 33°46' W 118°16'0 0.0
2017-Sep-12 09:31N 33°46' W 118°16'0 0.0
2017-Sep-12 09:01N 33°46' W 118°16'0 0.0
2017-Sep-12 08:31N 33°46' W 118°16'0 0.0
2017-Sep-12 08:00N 33°46' W 118°16'0 0.0
2017-Sep-12 07:31N 33°46' W 118°16'0 0.0
2017-Sep-12 07:01N 33°46' W 118°16'0 0.0
2017-Sep-12 06:31N 33°46' W 118°16'0 0.0
2017-Sep-12 06:01N 33°46' W 118°16'0 0.0
2017-Sep-12 05:31N 33°46' W 118°16'0 0.0
2017-Sep-12 05:01N 33°46' W 118°16'0 0.0
2017-Sep-12 04:31N 33°46' W 118°16'0 0.0
2017-Sep-12 04:01N 33°46' W 118°16'0 0.0
2017-Sep-12 03:31N 33°46' W 118°16'0 0.0
2017-Sep-12 03:00N 33°46' W 118°16'0 0.0
2017-Sep-12 02:31N 33°46' W 118°16'0 0.0
2017-Sep-12 02:00N 33°46' W 118°16'0 0.0
2017-Sep-12 01:31N 33°46' W 118°16'0 0.0
2017-Sep-12 01:01N 33°46' W 118°16'0 0.3
2017-Sep-12 00:31N 33°46' W 118°16'0 0.2
2017-Sep-12 00:01N 33°46' W 118°16'0 0.0
2017-Sep-11 23:31N 33°46' W 118°16'0 0.0
2017-Sep-11 23:01N 33°46' W 118°16'0 0.0
2017-Sep-11 22:30N 33°46' W 118°16'0 0.0
2017-Sep-11 22:00N 33°46' W 118°16'0 0.0
2017-Sep-11 21:31N 33°46' W 118°16'0 0.0
2017-Sep-11 21:00N 33°46' W 118°16'0 0.0
2017-Sep-11 20:30N 33°46' W 118°16'0 0.0
2017-Sep-11 20:00N 33°46' W 118°16'0 0.0
2017-Sep-11 19:31N 33°46' W 118°16'0 0.0
2017-Sep-11 19:01N 33°46' W 118°16'0 0.0
2017-Sep-11 18:31N 33°46' W 118°16'0 0.0
2017-Sep-11 18:01N 33°46' W 118°16'0 0.0
2017-Sep-11 17:31N 33°46' W 118°16'0 0.0
2017-Sep-11 17:01N 33°46' W 118°16'0 0.0
2017-Sep-11 16:31N 33°46' W 118°16'0 0.0
2017-Sep-11 16:01N 33°46' W 118°16'0 0.0
2017-Sep-11 15:30N 33°46' W 118°16'0 0.0
2017-Sep-11 15:00N 33°46' W 118°16'0 0.0
2017-Sep-11 14:30N 33°46' W 118°16'0 0.0
2017-Sep-11 14:00N 33°46' W 118°16'0 0.0
2017-Sep-11 13:30N 33°46' W 118°16'0 0.0
2017-Sep-11 13:01N 33°46' W 118°16'0 0.0
2017-Sep-11 12:31N 33°46' W 118°16'0 0.0
2017-Sep-11 12:01N 33°46' W 118°16'0 0.0
2017-Sep-11 11:31N 33°46' W 118°16'0 0.0
2017-Sep-11 11:00N 33°46' W 118°16'0 0.0
2017-Sep-11 10:30N 33°46' W 118°16'0 0.0
2017-Sep-11 10:01N 33°46' W 118°16'0 0.0
2017-Sep-11 09:30N 33°46' W 118°16'0 0.0
2017-Sep-11 09:01N 33°46' W 118°16'0 0.0
2017-Sep-11 08:30N 33°46' W 118°16'0 0.0
2017-Sep-11 08:01N 33°46' W 118°16'0 0.0
2017-Sep-11 07:30N 33°46' W 118°16'0 0.0
2017-Sep-11 07:01N 33°46' W 118°16'0 0.0
2017-Sep-11 06:31N 33°46' W 118°16'0 0.0
2017-Sep-11 06:01N 33°46' W 118°16'0 0.0
2017-Sep-11 05:30N 33°46' W 118°16'0 0.0
2017-Sep-11 05:00N 33°46' W 118°16'0 0.0
2017-Sep-11 04:30N 33°46' W 118°16'0 0.0
2017-Sep-11 04:01N 33°46' W 118°16'0 0.0
2017-Sep-11 03:31N 33°46' W 118°16'0 0.0
2017-Sep-11 03:01N 33°46' W 118°16'0 0.0
2017-Sep-11 02:30N 33°46' W 118°16'0 0.0
2017-Sep-11 02:01N 33°46' W 118°16'0 0.0
2017-Sep-11 01:31N 33°46' W 118°16'0 0.0
2017-Sep-11 01:00N 33°46' W 118°16'0 0.0
2017-Sep-11 00:30N 33°46' W 118°16'0 0.0
2017-Sep-11 00:01N 33°46' W 118°16'0 0.0
2017-Sep-10 23:30N 33°46' W 118°16'0 0.0
2017-Sep-10 23:00N 33°46' W 118°16'0 0.0
2017-Sep-10 22:31N 33°46' W 118°16'0 0.0
2017-Sep-10 22:01N 33°46' W 118°16'0 0.0
2017-Sep-10 21:30N 33°46' W 118°16'0 0.0
2017-Sep-10 21:00N 33°46' W 118°16'0 0.0
2017-Sep-10 20:30N 33°46' W 118°16'0 0.0
2017-Sep-10 20:00N 33°46' W 118°16'0 0.0
2017-Sep-10 19:31N 33°46' W 118°16'0 0.0
2017-Sep-10 19:00N 33°46' W 118°16'0 0.0
2017-Sep-10 18:31N 33°46' W 118°16'0 0.0
2017-Sep-10 18:00N 33°46' W 118°16'0 0.0
2017-Sep-10 17:31N 33°46' W 118°16'0 0.0
2017-Sep-10 17:01N 33°46' W 118°16'0 0.0
2017-Sep-10 16:31N 33°46' W 118°16'0 0.0
2017-Sep-10 16:00N 33°46' W 118°16'0 0.0
2017-Sep-10 15:30N 33°46' W 118°16'0 0.0
2017-Sep-10 15:01N 33°46' W 118°16'0 0.0
2017-Sep-10 14:01N 33°46' W 118°16'0 0.0
2017-Sep-10 13:31N 33°46' W 118°16'0 0.0
2017-Sep-10 13:00N 33°46' W 118°16'0 0.0
2017-Sep-10 12:30N 33°46' W 118°16'0 0.0
2017-Sep-10 12:00N 33°46' W 118°16'0 0.0
2017-Sep-10 11:30N 33°46' W 118°16'0 0.0
2017-Sep-10 11:00N 33°46' W 118°16'0 0.0
2017-Sep-10 10:31N 33°46' W 118°16'0 0.0
2017-Sep-10 10:01N 33°46' W 118°16'0 0.0
2017-Sep-10 09:31N 33°46' W 118°16'0 0.0
2017-Sep-10 09:01N 33°46' W 118°16'0 0.0
2017-Sep-10 08:31N 33°46' W 118°16'0 0.0
2017-Sep-10 08:01N 33°46' W 118°16'0 0.0
2017-Sep-10 07:30N 33°46' W 118°16'0 0.0
2017-Sep-10 07:00N 33°46' W 118°16'0 0.0
2017-Sep-10 06:30N 33°46' W 118°16'0 0.0
2017-Sep-10 06:00N 33°46' W 118°16'0 0.0
2017-Sep-10 05:30N 33°46' W 118°16'0 0.0
2017-Sep-10 05:01N 33°46' W 118°16'0 0.0
2017-Sep-10 04:31N 33°46' W 118°16'0 0.0
2017-Sep-10 04:00N 33°46' W 118°16'0 0.0
2017-Sep-10 03:30N 33°46' W 118°16'0 0.0
2017-Sep-10 03:01N 33°46' W 118°16'0 0.0
2017-Sep-10 02:30N 33°46' W 118°16'0 0.0
2017-Sep-10 02:01N 33°46' W 118°16'0 0.0
2017-Sep-10 01:31N 33°46' W 118°16'0 0.0
2017-Sep-10 01:01N 33°46' W 118°16'0 0.0
2017-Sep-10 00:30N 33°46' W 118°16'0 0.0
2017-Sep-10 00:00N 33°46' W 118°16'0 0.0
2017-Sep-09 23:31N 33°46' W 118°16'0 0.0
2017-Sep-09 23:01N 33°46' W 118°16'0 0.0
2017-Sep-09 22:31N 33°46' W 118°16'0 0.0
2017-Sep-09 22:00N 33°46' W 118°16'0 0.0
2017-Sep-09 21:31N 33°46' W 118°16'0 0.0
2017-Sep-09 21:00N 33°46' W 118°16'0 0.0
2017-Sep-09 20:30N 33°46' W 118°16'0 0.0
2017-Sep-09 20:00N 33°46' W 118°16'0 0.0
2017-Sep-09 19:31N 33°46' W 118°16'0 0.0
2017-Sep-09 19:00N 33°46' W 118°16'0 0.0
2017-Sep-09 18:31N 33°46' W 118°16'0 0.0
2017-Sep-09 18:00N 33°46' W 118°16'0 0.0
2017-Sep-09 17:30N 33°46' W 118°16'0 0.0
2017-Sep-09 17:00N 33°46' W 118°16'0 0.0
2017-Sep-09 16:31N 33°46' W 118°16'0 0.0
2017-Sep-09 16:01N 33°46' W 118°16'0 0.0
2017-Sep-09 15:31N 33°46' W 118°16'0 0.0
2017-Sep-09 15:01N 33°46' W 118°16'0 0.0
2017-Sep-09 14:30N 33°46' W 118°16'0 0.0
2017-Sep-09 14:00N 33°46' W 118°16'0 0.0
2017-Sep-09 13:27N 33°46' W 118°16'0 0.0
2017-Sep-09 13:00N 33°46' W 118°16'0 0.0
2017-Sep-09 12:28N 33°46' W 118°16'0 0.0
2017-Sep-09 12:00N 33°46' W 118°16'0 0.0
2017-Sep-09 11:29N 33°46' W 118°16'0 0.0
2017-Sep-09 11:00N 33°46' W 118°16'0 0.0
2017-Sep-09 10:31N 33°46' W 118°16'0 0.0
2017-Sep-09 10:00N 33°46' W 118°16'0 0.0
2017-Sep-09 09:30N 33°46' W 118°16'0 0.0
2017-Sep-09 09:00N 33°46' W 118°16'0 0.0
2017-Sep-09 08:30N 33°46' W 118°16'0 0.0
2017-Sep-09 08:00N 33°46' W 118°16'0 0.0
2017-Sep-09 07:28N 33°46' W 118°16'0 0.0
2017-Sep-09 07:01N 33°46' W 118°16'0 0.0
2017-Sep-09 06:30N 33°46' W 118°16'0 0.0
2017-Sep-09 06:00N 33°46' W 118°16'0 0.0
2017-Sep-09 05:30N 33°46' W 118°16'0 0.0
2017-Sep-09 05:00N 33°46' W 118°16'0 0.0
2017-Sep-09 04:31N 33°46' W 118°16'0 0.0
2017-Sep-09 04:00N 33°46' W 118°16'0 0.0
2017-Sep-09 03:30N 33°46' W 118°16'0 0.0
2017-Sep-09 03:00N 33°46' W 118°16'0 0.0
2017-Sep-09 02:30N 33°46' W 118°16'0 0.0
2017-Sep-09 02:01N 33°46' W 118°16'0 0.0
2017-Sep-09 01:30N 33°46' W 118°16'0 0.0
2017-Sep-09 01:00N 33°46' W 118°16'0 0.0
2017-Sep-09 00:30N 33°46' W 118°16'0 0.0
2017-Sep-09 00:01N 33°46' W 118°16'0 0.0
2017-Sep-08 23:31N 33°46' W 118°16'0 0.0
2017-Sep-08 23:00N 33°46' W 118°16'0 0.0
2017-Sep-08 22:30N 33°46' W 118°16'0 0.0
2017-Sep-08 22:01N 33°46' W 118°16'0 0.0
2017-Sep-08 21:30N 33°46' W 118°16'0 0.0
2017-Sep-08 21:00N 33°46' W 118°16'0 0.0
2017-Sep-08 20:31N 33°46' W 118°16'0 0.0
2017-Sep-08 20:01N 33°46' W 118°16'0 0.0
2017-Sep-08 19:31N 33°46' W 118°16'0 0.0
2017-Sep-08 19:00N 33°46' W 118°16'0 0.0
2017-Sep-08 18:31N 33°46' W 118°16'0 0.0
2017-Sep-08 18:01N 33°46' W 118°16'0 0.0
2017-Sep-08 17:31N 33°46' W 118°16'0 0.0
2017-Sep-08 17:01N 33°46' W 118°16'0 0.0
2017-Sep-08 16:31N 33°46' W 118°16'0 0.0
2017-Sep-08 16:01N 33°46' W 118°16'0 0.0
2017-Sep-08 15:30N 33°46' W 118°16'0 0.0
2017-Sep-08 15:00N 33°46' W 118°16'0 0.0
2017-Sep-08 14:31N 33°46' W 118°16'0 0.0
2017-Sep-08 14:01N 33°46' W 118°16'0 0.0
2017-Sep-08 13:31N 33°46' W 118°16'0 0.0
2017-Sep-08 13:00N 33°46' W 118°16'0 0.0
2017-Sep-08 12:31N 33°46' W 118°16'0 0.0
2017-Sep-08 12:00N 33°46' W 118°16'0 0.0
2017-Sep-08 11:30N 33°46' W 118°16'0 0.0
2017-Sep-08 11:01N 33°46' W 118°16'0 0.0
2017-Sep-08 10:30N 33°46' W 118°16'0 0.0
2017-Sep-08 10:01N 33°46' W 118°16'0 0.0
2017-Sep-08 09:31N 33°46' W 118°16'0 0.0
2017-Sep-08 09:00N 33°46' W 118°16'0 0.0
2017-Sep-08 08:30N 33°46' W 118°16'0 0.0
2017-Sep-08 08:01N 33°46' W 118°16'0 0.0
2017-Sep-08 07:31N 33°46' W 118°16'0 0.0
2017-Sep-08 07:01N 33°46' W 118°16'0 0.0
2017-Sep-08 06:31N 33°46' W 118°16'0 0.0
2017-Sep-08 06:00N 33°46' W 118°16'0 0.0
2017-Sep-08 05:31N 33°46' W 118°16'0 0.0
2017-Sep-08 05:01N 33°46' W 118°16'0 0.0
2017-Sep-08 04:30N 33°46' W 118°16'0 0.0
2017-Sep-08 04:01N 33°46' W 118°16'0 0.0
2017-Sep-08 03:31N 33°46' W 118°16'0 0.0
2017-Sep-08 03:01N 33°46' W 118°16'0 0.0
2017-Sep-08 02:31N 33°46' W 118°16'0 0.0
2017-Sep-08 02:01N 33°46' W 118°16'0 0.0
2017-Sep-08 01:31N 33°46' W 118°16'0 0.0
2017-Sep-08 01:01N 33°46' W 118°16'0 0.0
2017-Sep-08 00:31N 33°46' W 118°16'0 0.0
2017-Sep-08 00:01N 33°46' W 118°16'0 0.0
2017-Sep-07 23:30N 33°46' W 118°16'0 0.0
2017-Sep-07 23:01N 33°46' W 118°16'0 0.0
2017-Sep-07 22:31N 33°46' W 118°16'0 0.0
2017-Sep-07 22:01N 33°46' W 118°16'0 0.0
2017-Sep-07 21:31N 33°46' W 118°16'0 0.0
2017-Sep-07 21:01N 33°46' W 118°16'0 0.0
2017-Sep-07 20:31N 33°46' W 118°16'0 0.0
2017-Sep-07 20:01N 33°46' W 118°16'0 0.0
2017-Sep-07 19:30N 33°46' W 118°16'0 0.0
2017-Sep-07 19:01N 33°46' W 118°16'0 0.0
2017-Sep-07 18:31N 33°46' W 118°16'0 0.0
2017-Sep-07 18:01N 33°46' W 118°16'0 0.0
2017-Sep-07 17:31N 33°46' W 118°16'0 0.0
2017-Sep-07 17:01N 33°46' W 118°16'0 0.0
2017-Sep-07 16:30N 33°46' W 118°16'0 0.0
2017-Sep-07 16:01N 33°46' W 118°16'0 0.0
2017-Sep-07 15:31N 33°46' W 118°16'0 0.0
2017-Sep-07 15:01N 33°46' W 118°16'0 0.0
2017-Sep-07 14:31N 33°46' W 118°16'0 0.0
2017-Sep-07 14:01N 33°46' W 118°16'0 0.0
2017-Sep-07 13:31N 33°46' W 118°16'0 0.0
2017-Sep-07 13:01N 33°46' W 118°16'0 0.0
2017-Sep-07 12:31N 33°46' W 118°16'0 0.0
2017-Sep-07 12:01N 33°46' W 118°16'0 0.0
2017-Sep-07 11:30N 33°46' W 118°16'0 0.0
2017-Sep-07 11:01N 33°46' W 118°16'0 0.0
2017-Sep-07 10:31N 33°46' W 118°16'0 0.0
2017-Sep-07 10:01N 33°46' W 118°16'0 0.0
2017-Sep-07 09:31N 33°46' W 118°16'0 0.0
2017-Sep-07 09:01N 33°46' W 118°16'0 0.0
2017-Sep-07 08:31N 33°46' W 118°16'0 0.0
2017-Sep-07 08:01N 33°46' W 118°16'0 0.0
2017-Sep-07 07:31N 33°46' W 118°16'0 0.0
2017-Sep-07 07:00N 33°46' W 118°16'0 0.0
2017-Sep-07 06:30N 33°46' W 118°16'0 0.0
2017-Sep-07 06:01N 33°46' W 118°16'0 0.0
2017-Sep-07 05:31N 33°46' W 118°16'0 0.0
2017-Sep-07 05:00N 33°46' W 118°16'0 0.0
2017-Sep-07 04:31N 33°46' W 118°16'0 0.0
2017-Sep-07 04:00N 33°46' W 118°16'0 0.0
2017-Sep-07 03:31N 33°46' W 118°16'0 0.0
2017-Sep-07 03:01N 33°46' W 118°16'0 0.0
2017-Sep-07 02:30N 33°46' W 118°16'0 0.0
2017-Sep-07 02:01N 33°46' W 118°16'0 0.0
2017-Sep-07 01:31N 33°46' W 118°16'0 0.0
2017-Sep-07 01:01N 33°46' W 118°16'0 0.0
2017-Sep-07 00:31N 33°46' W 118°16'0 0.0
2017-Sep-07 00:00N 33°46' W 118°16'0 0.0
2017-Sep-06 23:31N 33°46' W 118°16'0 0.0
2017-Sep-06 23:00N 33°46' W 118°16'0 0.0
2017-Sep-06 22:30N 33°46' W 118°16'0 0.0
2017-Sep-06 22:01N 33°46' W 118°16'0 0.0
2017-Sep-06 21:31N 33°46' W 118°16'0 0.0
2017-Sep-06 21:01N 33°46' W 118°16'0 0.0
2017-Sep-06 20:31N 33°46' W 118°16'0 0.0
2017-Sep-06 20:01N 33°46' W 118°16'0 0.0
2017-Sep-06 19:31N 33°46' W 118°16'0 0.0
2017-Sep-06 19:01N 33°46' W 118°16'0 0.0
2017-Sep-06 18:31N 33°46' W 118°16'0 0.0
2017-Sep-06 18:01N 33°46' W 118°16'0 0.0
2017-Sep-06 17:31N 33°46' W 118°16'0 0.0
2017-Sep-06 17:00N 33°46' W 118°16'0 0.0
2017-Sep-06 16:30N 33°46' W 118°16'0 0.0
2017-Sep-06 16:00N 33°46' W 118°16'0 0.0
2017-Sep-06 15:31N 33°46' W 118°16'0 0.0
2017-Sep-06 15:01N 33°46' W 118°16'0 0.0
2017-Sep-06 14:31N 33°46' W 118°16'0 0.0
2017-Sep-06 14:01N 33°46' W 118°16'0 0.0
2017-Sep-06 13:31N 33°46' W 118°16'0 0.0
2017-Sep-06 13:00N 33°46' W 118°16'0 0.7
2017-Sep-06 12:30N 33°45' W 118°17'1 1.9
2017-Sep-06 12:01N 33°45' W 118°17'3 6.5
2017-Sep-06 11:31N 33°42' W 118°14'4 7.8
2017-Sep-06 11:00N 33°38' W 118°15'4 7.5
2017-Sep-06 10:30N 33°36' W 118°19'510.9
2017-Sep-06 10:01N 33°36' W 118°25'611.5
2017-Sep-06 09:30N 33°35' W 118°32'612.0
2017-Sep-06 09:01N 33°36' W 118°39'611.9
2017-Sep-06 08:31N 33°37' W 118°47'612.0
2017-Sep-06 08:00N 33°37' W 118°54'611.9
2017-Sep-06 07:31N 33°38' W 119°01'612.9
2017-Sep-06 07:00N 33°38' W 119°09'1020.2
2017-Sep-06 06:31N 33°39' W 119°21'814.7
2017-Sep-06 05:59N 33°40' W 119°30'510.0
2017-Sep-06 05:30N 33°41' W 119°36'510.1
2017-Sep-06 05:00N 33°41' W 119°42'510.0
2017-Sep-06 04:30N 33°41' W 119°48'510.0
2017-Sep-06 04:00N 33°42' W 119°54'5 9.7
2017-Sep-06 03:30N 33°42' W 119°59'11 9.9
2017-Sep-06 02:22N 33°44' W 120°13'4 9.8
2017-Sep-06 02:00N 33°44' W 120°17'5 9.2
2017-Sep-06 01:30N 33°45' W 120°23'5 9.4
2017-Sep-06 00:58N 33°45' W 120°29'510.2
2017-Sep-06 00:30N 33°46' W 120°34'5 9.5
2017-Sep-06 00:00N 33°47' W 120°40'3 6.7
2017-Sep-05 23:30N 33°48' W 120°43'510.1
2017-Sep-05 23:00N 33°49' W 120°50'713.4
2017-Sep-05 22:28N 33°50' W 120°58'715.8
2017-Sep-05 22:01N 33°52' W 121°06'815.5
2017-Sep-05 21:30N 33°53' W 121°16'815.3
2017-Sep-05 20:59N 33°54' W 121°25'815.1
2017-Sep-05 20:27N 33°56' W 121°35'715.2
2017-Sep-05 20:00N 33°57' W 121°43'815.3
2017-Sep-05 19:31N 33°58' W 121°52'815.5
2017-Sep-05 19:00N 33°59' W 122°01'815.4
2017-Sep-05 18:31N 34°01' W 122°10'815.3
2017-Sep-05 18:00N 34°02' W 122°19'815.4
2017-Sep-05 17:31N 34°03' W 122°28'815.4
2017-Sep-05 17:01N 34°05' W 122°38'1015.6
2017-Sep-05 16:20N 34°06' W 122°50'715.5
2017-Sep-05 15:54N 34°08' W 122°58'1615.3
2017-Sep-05 14:52N 34°10' W 123°17'815.4
2017-Sep-05 14:22N 34°12' W 123°26'2115.2
2017-Sep-05 13:01N 34°15' W 123°51'215.3
2017-Sep-05 12:55N 34°15' W 123°52'815.3
2017-Sep-05 12:25N 34°17' W 124°02'18716.2
2017-Sep-05 00:52N 35°33' W 127°30'718.7
2017-Sep-05 00:30N 35°36' W 127°37'4620.4
2017-Sep-04 22:16N 35°59' W 128°25'620.7
2017-Sep-04 22:00N 36°02' W 128°31'1320.9
2017-Sep-04 21:23N 36°08' W 128°45'821.0
2017-Sep-04 21:00N 36°12' W 128°54'1121.4
2017-Sep-04 20:30N 36°18' W 129°06'1121.2
2017-Sep-04 20:00N 36°23' W 129°17'2120.8
2017-Sep-04 19:00N 36°33' W 129°40'2320.7
2017-Sep-04 17:52N 36°45' W 130°05'720.4
2017-Sep-04 17:30N 36°48' W 130°13'1020.4
2017-Sep-04 17:00N 36°53' W 130°24'1020.2
2017-Sep-04 16:30N 36°58' W 130°35'1020.2
2017-Sep-04 16:00N 37°03' W 130°46'1120.3
2017-Sep-04 15:28N 37°08' W 130°58'1420.3
2017-Sep-04 14:48N 37°15' W 131°13'720.4
2017-Sep-04 14:28N 37°18' W 131°21'920.4
2017-Sep-04 14:00N 37°23' W 131°31'1120.6
2017-Sep-04 13:29N 37°27' W 131°43'1020.7
2017-Sep-04 13:00N 37°32' W 131°54'1020.4
2017-Sep-04 12:30N 37°37' W 132°05'4820.6
2017-Sep-04 10:09N 37°59' W 132°60'320.5
2017-Sep-04 10:00N 38°01' W 133°03'1020.4
2017-Sep-04 09:30N 38°05' W 133°15'1020.5
2017-Sep-04 09:00N 38°10' W 133°26'1220.6
2017-Sep-04 08:26N 38°15' W 133°39'1120.3
2017-Sep-04 07:54N 38°20' W 133°52'1620.3
2017-Sep-04 07:08N 38°27' W 134°10'320.1
2017-Sep-04 07:00N 38°28' W 134°12'1220.3
2017-Sep-04 06:26N 38°34' W 134°26'1020.2
2017-Sep-04 05:57N 38°38' W 134°37'1320.3
2017-Sep-04 05:18N 38°44' W 134°52'  
Track history (hours):
 
Tides and Currents Weather Stations Pressure Air Temp Water Temp Dewpoint Dewpoint Depression Visibility Wind Speed Wind Dir Waves Ship Positions

Xin Fu 14

Last reported at 2017-Sep-13 05:23 UTC. Time now 2017-Sep-26 21:52 UTC.
Position N 34°27' W 122°07'.
Warning: this ship's position is 13 days out of date.

Length 300 m; draft 7.5 m.

Type: Cargo ship. MMSI: 434156100.

Date/timePositionNaut miles runAvg speedWind from/ knotsBaromVisibWave heightAir tempDewpointWater temp
2017-Sep-13 05:23N 34°27' W 122°07'615.2
2017-Sep-13 05:00N 34°27' W 122°00'714.9
2017-Sep-13 04:31N 34°27' W 121°51'815.0
2017-Sep-13 04:01N 34°27' W 121°42'815.1
2017-Sep-13 03:30N 34°27' W 121°33'814.7
2017-Sep-13 02:59N 34°27' W 121°23'715.0
2017-Sep-13 02:31N 34°27' W 121°15'714.8
2017-Sep-13 02:01N 34°26' W 121°06'714.8
2017-Sep-13 01:30N 34°26' W 120°57'611.2
2017-Sep-13 01:00N 34°26' W 120°50'5 9.7
2017-Sep-13 00:28N 34°24' W 120°44'5 9.8
2017-Sep-13 00:00N 34°23' W 120°39'5 9.6
2017-Sep-12 23:29N 34°22' W 120°33'510.2
2017-Sep-12 23:00N 34°21' W 120°27'510.2
2017-Sep-12 22:29N 34°19' W 120°21'510.5
2017-Sep-12 22:00N 34°18' W 120°15'510.2
2017-Sep-12 21:30N 34°17' W 120°09'5 9.8
2017-Sep-12 20:58N 34°15' W 120°03'510.0
2017-Sep-12 20:30N 34°14' W 119°57'5 9.9
2017-Sep-12 20:00N 34°13' W 119°52'5 9.9
2017-Sep-12 19:29N 34°11' W 119°46'5 9.9
2017-Sep-12 18:59N 34°10' W 119°40'6 9.7
2017-Sep-12 18:23N 34°08' W 119°33'410.1
2017-Sep-12 18:00N 34°08' W 119°29'612.3
2017-Sep-12 17:31N 34°06' W 119°22'714.4
2017-Sep-12 17:00N 34°03' W 119°13'714.9
2017-Sep-12 16:30N 33°60' W 119°05'713.4
2017-Sep-12 16:00N 33°56' W 118°58'611.9
2017-Sep-12 15:30N 33°53' W 118°52'611.8
2017-Sep-12 15:00N 33°50' W 118°46'612.1
2017-Sep-12 14:30N 33°47' W 118°40'612.1
2017-Sep-12 13:59N 33°44' W 118°33'612.1
2017-Sep-12 13:30N 33°42' W 118°27'612.2
2017-Sep-12 13:00N 33°39' W 118°21'5 9.9
2017-Sep-12 12:31N 33°40' W 118°15'3 6.8
2017-Sep-12 12:01N 33°44' W 118°16'2 3.4
2017-Sep-12 11:31N 33°45' W 118°17'1 1.3
2017-Sep-12 11:01N 33°46' W 118°16'0 0.0
2017-Sep-12 10:31N 33°46' W 118°16'0 0.0
2017-Sep-12 10:00N 33°46' W 118°16'0 0.0
2017-Sep-12 09:31N 33°46' W 118°16'0 0.0
2017-Sep-12 09:01N 33°46' W 118°16'0 0.0
2017-Sep-12 08:31N 33°46' W 118°16'0 0.0
2017-Sep-12 08:00N 33°46' W 118°16'0 0.0
2017-Sep-12 07:31N 33°46' W 118°16'0 0.0
2017-Sep-12 07:01N 33°46' W 118°16'0 0.0
2017-Sep-12 06:31N 33°46' W 118°16'0 0.0
2017-Sep-12 06:01N 33°46' W 118°16'0 0.0
2017-Sep-12 05:31N 33°46' W 118°16'0 0.0
2017-Sep-12 05:01N 33°46' W 118°16'0 0.0
2017-Sep-12 04:31N 33°46' W 118°16'0 0.0
2017-Sep-12 04:01N 33°46' W 118°16'0 0.0
2017-Sep-12 03:31N 33°46' W 118°16'0 0.0
2017-Sep-12 03:00N 33°46' W 118°16'0 0.0
2017-Sep-12 02:31N 33°46' W 118°16'0 0.0
2017-Sep-12 02:00N 33°46' W 118°16'0 0.0
2017-Sep-12 01:31N 33°46' W 118°16'0 0.0
2017-Sep-12 01:01N 33°46' W 118°16'0 0.3
2017-Sep-12 00:31N 33°46' W 118°16'0 0.2
2017-Sep-12 00:01N 33°46' W 118°16'0 0.0
2017-Sep-11 23:31N 33°46' W 118°16'0 0.0
2017-Sep-11 23:01N 33°46' W 118°16'0 0.0
2017-Sep-11 22:30N 33°46' W 118°16'0 0.0
2017-Sep-11 22:00N 33°46' W 118°16'0 0.0
2017-Sep-11 21:31N 33°46' W 118°16'0 0.0
2017-Sep-11 21:00N 33°46' W 118°16'0 0.0
2017-Sep-11 20:30N 33°46' W 118°16'0 0.0
2017-Sep-11 20:00N 33°46' W 118°16'0 0.0
2017-Sep-11 19:31N 33°46' W 118°16'0 0.0
2017-Sep-11 19:01N 33°46' W 118°16'0 0.0
2017-Sep-11 18:31N 33°46' W 118°16'0 0.0
2017-Sep-11 18:01N 33°46' W 118°16'0 0.0
2017-Sep-11 17:31N 33°46' W 118°16'0 0.0
2017-Sep-11 17:01N 33°46' W 118°16'0 0.0
2017-Sep-11 16:31N 33°46' W 118°16'0 0.0
2017-Sep-11 16:01N 33°46' W 118°16'0 0.0
2017-Sep-11 15:30N 33°46' W 118°16'0 0.0
2017-Sep-11 15:00N 33°46' W 118°16'0 0.0
2017-Sep-11 14:30N 33°46' W 118°16'0 0.0
2017-Sep-11 14:00N 33°46' W 118°16'0 0.0
2017-Sep-11 13:30N 33°46' W 118°16'0 0.0
2017-Sep-11 13:01N 33°46' W 118°16'0 0.0
2017-Sep-11 12:31N 33°46' W 118°16'0 0.0
2017-Sep-11 12:01N 33°46' W 118°16'0 0.0
2017-Sep-11 11:31N 33°46' W 118°16'0 0.0
2017-Sep-11 11:00N 33°46' W 118°16'0 0.0
2017-Sep-11 10:30N 33°46' W 118°16'0 0.0
2017-Sep-11 10:01N 33°46' W 118°16'0 0.0
2017-Sep-11 09:30N 33°46' W 118°16'0 0.0
2017-Sep-11 09:01N 33°46' W 118°16'0 0.0
2017-Sep-11 08:30N 33°46' W 118°16'0 0.0
2017-Sep-11 08:01N 33°46' W 118°16'0 0.0
2017-Sep-11 07:30N 33°46' W 118°16'0 0.0
2017-Sep-11 07:01N 33°46' W 118°16'0 0.0
2017-Sep-11 06:31N 33°46' W 118°16'0 0.0
2017-Sep-11 06:01N 33°46' W 118°16'0 0.0
2017-Sep-11 05:30N 33°46' W 118°16'0 0.0
2017-Sep-11 05:00N 33°46' W 118°16'0 0.0
2017-Sep-11 04:30N 33°46' W 118°16'0 0.0
2017-Sep-11 04:01N 33°46' W 118°16'0 0.0
2017-Sep-11 03:31N 33°46' W 118°16'0 0.0
2017-Sep-11 03:01N 33°46' W 118°16'0 0.0
2017-Sep-11 02:30N 33°46' W 118°16'0 0.0
2017-Sep-11 02:01N 33°46' W 118°16'0 0.0
2017-Sep-11 01:31N 33°46' W 118°16'0 0.0
2017-Sep-11 01:00N 33°46' W 118°16'0 0.0
2017-Sep-11 00:30N 33°46' W 118°16'0 0.0
2017-Sep-11 00:01N 33°46' W 118°16'0 0.0
2017-Sep-10 23:30N 33°46' W 118°16'0 0.0
2017-Sep-10 23:00N 33°46' W 118°16'0 0.0
2017-Sep-10 22:31N 33°46' W 118°16'0 0.0
2017-Sep-10 22:01N 33°46' W 118°16'0 0.0
2017-Sep-10 21:30N 33°46' W 118°16'0 0.0
2017-Sep-10 21:00N 33°46' W 118°16'0 0.0
2017-Sep-10 20:30N 33°46' W 118°16'0 0.0
2017-Sep-10 20:00N 33°46' W 118°16'0 0.0
2017-Sep-10 19:31N 33°46' W 118°16'0 0.0
2017-Sep-10 19:00N 33°46' W 118°16'0 0.0
2017-Sep-10 18:31N 33°46' W 118°16'0 0.0
2017-Sep-10 18:00N 33°46' W 118°16'0 0.0
2017-Sep-10 17:31N 33°46' W 118°16'0 0.0
2017-Sep-10 17:01N 33°46' W 118°16'0 0.0
2017-Sep-10 16:31N 33°46' W 118°16'0 0.0
2017-Sep-10 16:00N 33°46' W 118°16'0 0.0
2017-Sep-10 15:30N 33°46' W 118°16'0 0.0
2017-Sep-10 15:01N 33°46' W 118°16'0 0.0
2017-Sep-10 14:01N 33°46' W 118°16'0 0.0
2017-Sep-10 13:31N 33°46' W 118°16'0 0.0
2017-Sep-10 13:00N 33°46' W 118°16'0 0.0
2017-Sep-10 12:30N 33°46' W 118°16'0 0.0
2017-Sep-10 12:00N 33°46' W 118°16'0 0.0
2017-Sep-10 11:30N 33°46' W 118°16'0 0.0
2017-Sep-10 11:00N 33°46' W 118°16'0 0.0
2017-Sep-10 10:31N 33°46' W 118°16'0 0.0
2017-Sep-10 10:01N 33°46' W 118°16'0 0.0
2017-Sep-10 09:31N 33°46' W 118°16'0 0.0
2017-Sep-10 09:01N 33°46' W 118°16'0 0.0
2017-Sep-10 08:31N 33°46' W 118°16'0 0.0
2017-Sep-10 08:01N 33°46' W 118°16'0 0.0
2017-Sep-10 07:30N 33°46' W 118°16'0 0.0
2017-Sep-10 07:00N 33°46' W 118°16'0 0.0
2017-Sep-10 06:30N 33°46' W 118°16'0 0.0
2017-Sep-10 06:00N 33°46' W 118°16'0 0.0
2017-Sep-10 05:30N 33°46' W 118°16'0 0.0
2017-Sep-10 05:01N 33°46' W 118°16'0 0.0
2017-Sep-10 04:31N 33°46' W 118°16'0 0.0
2017-Sep-10 04:00N 33°46' W 118°16'0 0.0
2017-Sep-10 03:30N 33°46' W 118°16'0 0.0
2017-Sep-10 03:01N 33°46' W 118°16'0 0.0
2017-Sep-10 02:30N 33°46' W 118°16'0 0.0
2017-Sep-10 02:01N 33°46' W 118°16'0 0.0
2017-Sep-10 01:31N 33°46' W 118°16'0 0.0
2017-Sep-10 01:01N 33°46' W 118°16'0 0.0
2017-Sep-10 00:30N 33°46' W 118°16'0 0.0
2017-Sep-10 00:00N 33°46' W 118°16'0 0.0
2017-Sep-09 23:31N 33°46' W 118°16'0 0.0
2017-Sep-09 23:01N 33°46' W 118°16'0 0.0
2017-Sep-09 22:31N 33°46' W 118°16'0 0.0
2017-Sep-09 22:00N 33°46' W 118°16'0 0.0
2017-Sep-09 21:31N 33°46' W 118°16'0 0.0
2017-Sep-09 21:00N 33°46' W 118°16'0 0.0
2017-Sep-09 20:30N 33°46' W 118°16'0 0.0
2017-Sep-09 20:00N 33°46' W 118°16'0 0.0
2017-Sep-09 19:31N 33°46' W 118°16'0 0.0
2017-Sep-09 19:00N 33°46' W 118°16'0 0.0
2017-Sep-09 18:31N 33°46' W 118°16'0 0.0
2017-Sep-09 18:00N 33°46' W 118°16'0 0.0
2017-Sep-09 17:30N 33°46' W 118°16'0 0.0
2017-Sep-09 17:00N 33°46' W 118°16'0 0.0
2017-Sep-09 16:31N 33°46' W 118°16'0 0.0
2017-Sep-09 16:01N 33°46' W 118°16'0 0.0
2017-Sep-09 15:31N 33°46' W 118°16'0 0.0
2017-Sep-09 15:01N 33°46' W 118°16'0 0.0
2017-Sep-09 14:30N 33°46' W 118°16'0 0.0
2017-Sep-09 14:00N 33°46' W 118°16'0 0.0
2017-Sep-09 13:27N 33°46' W 118°16'0 0.0
2017-Sep-09 13:00N 33°46' W 118°16'0 0.0
2017-Sep-09 12:28N 33°46' W 118°16'0 0.0
2017-Sep-09 12:00N 33°46' W 118°16'0 0.0
2017-Sep-09 11:29N 33°46' W 118°16'0 0.0
2017-Sep-09 11:00N 33°46' W 118°16'0 0.0
2017-Sep-09 10:31N 33°46' W 118°16'0 0.0
2017-Sep-09 10:00N 33°46' W 118°16'0 0.0
2017-Sep-09 09:30N 33°46' W 118°16'0 0.0
2017-Sep-09 09:00N 33°46' W 118°16'0 0.0
2017-Sep-09 08:30N 33°46' W 118°16'0 0.0
2017-Sep-09 08:00N 33°46' W 118°16'0 0.0
2017-Sep-09 07:28N 33°46' W 118°16'0 0.0
2017-Sep-09 07:01N 33°46' W 118°16'0 0.0
2017-Sep-09 06:30N 33°46' W 118°16'0 0.0
2017-Sep-09 06:00N 33°46' W 118°16'0 0.0
2017-Sep-09 05:30N 33°46' W 118°16'0 0.0
2017-Sep-09 05:00N 33°46' W 118°16'0 0.0
2017-Sep-09 04:31N 33°46' W 118°16'0 0.0
2017-Sep-09 04:00N 33°46' W 118°16'0 0.0
2017-Sep-09 03:30N 33°46' W 118°16'0 0.0
2017-Sep-09 03:00N 33°46' W 118°16'0 0.0
2017-Sep-09 02:30N 33°46' W 118°16'0 0.0
2017-Sep-09 02:01N 33°46' W 118°16'0 0.0
2017-Sep-09 01:30N 33°46' W 118°16'0 0.0
2017-Sep-09 01:00N 33°46' W 118°16'0 0.0
2017-Sep-09 00:30N 33°46' W 118°16'0 0.0
2017-Sep-09 00:01N 33°46' W 118°16'0 0.0
2017-Sep-08 23:31N 33°46' W 118°16'0 0.0
2017-Sep-08 23:00N 33°46' W 118°16'0 0.0
2017-Sep-08 22:30N 33°46' W 118°16'0 0.0
2017-Sep-08 22:01N 33°46' W 118°16'0 0.0
2017-Sep-08 21:30N 33°46' W 118°16'0 0.0
2017-Sep-08 21:00N 33°46' W 118°16'0 0.0
2017-Sep-08 20:31N 33°46' W 118°16'0 0.0
2017-Sep-08 20:01N 33°46' W 118°16'0 0.0
2017-Sep-08 19:31N 33°46' W 118°16'0 0.0
2017-Sep-08 19:00N 33°46' W 118°16'0 0.0
2017-Sep-08 18:31N 33°46' W 118°16'0 0.0
2017-Sep-08 18:01N 33°46' W 118°16'0 0.0
2017-Sep-08 17:31N 33°46' W 118°16'0 0.0
2017-Sep-08 17:01N 33°46' W 118°16'0 0.0
2017-Sep-08 16:31N 33°46' W 118°16'0 0.0
2017-Sep-08 16:01N 33°46' W 118°16'0 0.0
2017-Sep-08 15:30N 33°46' W 118°16'0 0.0
2017-Sep-08 15:00N 33°46' W 118°16'0 0.0
2017-Sep-08 14:31N 33°46' W 118°16'0 0.0
2017-Sep-08 14:01N 33°46' W 118°16'0 0.0
2017-Sep-08 13:31N 33°46' W 118°16'0 0.0
2017-Sep-08 13:00N 33°46' W 118°16'0 0.0
2017-Sep-08 12:31N 33°46' W 118°16'0 0.0
2017-Sep-08 12:00N 33°46' W 118°16'0 0.0
2017-Sep-08 11:30N 33°46' W 118°16'0 0.0
2017-Sep-08 11:01N 33°46' W 118°16'0 0.0
2017-Sep-08 10:30N 33°46' W 118°16'0 0.0
2017-Sep-08 10:01N 33°46' W 118°16'0 0.0
2017-Sep-08 09:31N 33°46' W 118°16'0 0.0
2017-Sep-08 09:00N 33°46' W 118°16'0 0.0
2017-Sep-08 08:30N 33°46' W 118°16'0 0.0
2017-Sep-08 08:01N 33°46' W 118°16'0 0.0
2017-Sep-08 07:31N 33°46' W 118°16'0 0.0
2017-Sep-08 07:01N 33°46' W 118°16'0 0.0
2017-Sep-08 06:31N 33°46' W 118°16'0 0.0
2017-Sep-08 06:00N 33°46' W 118°16'0 0.0
2017-Sep-08 05:31N 33°46' W 118°16'0 0.0
2017-Sep-08 05:01N 33°46' W 118°16'0 0.0
2017-Sep-08 04:30N 33°46' W 118°16'0 0.0
2017-Sep-08 04:01N 33°46' W 118°16'0 0.0
2017-Sep-08 03:31N 33°46' W 118°16'0 0.0
2017-Sep-08 03:01N 33°46' W 118°16'0 0.0
2017-Sep-08 02:31N 33°46' W 118°16'0 0.0
2017-Sep-08 02:01N 33°46' W 118°16'0 0.0
2017-Sep-08 01:31N 33°46' W 118°16'0 0.0
2017-Sep-08 01:01N 33°46' W 118°16'0 0.0
2017-Sep-08 00:31N 33°46' W 118°16'0 0.0
2017-Sep-08 00:01N 33°46' W 118°16'0 0.0
2017-Sep-07 23:30N 33°46' W 118°16'0 0.0
2017-Sep-07 23:01N 33°46' W 118°16'0 0.0
2017-Sep-07 22:31N 33°46' W 118°16'0 0.0
2017-Sep-07 22:01N 33°46' W 118°16'0 0.0
2017-Sep-07 21:31N 33°46' W 118°16'0 0.0
2017-Sep-07 21:01N 33°46' W 118°16'0 0.0
2017-Sep-07 20:31N 33°46' W 118°16'0 0.0
2017-Sep-07 20:01N 33°46' W 118°16'0 0.0
2017-Sep-07 19:30N 33°46' W 118°16'0 0.0
2017-Sep-07 19:01N 33°46' W 118°16'0 0.0
2017-Sep-07 18:31N 33°46' W 118°16'0 0.0
2017-Sep-07 18:01N 33°46' W 118°16'0 0.0
2017-Sep-07 17:31N 33°46' W 118°16'0 0.0
2017-Sep-07 17:01N 33°46' W 118°16'0 0.0
2017-Sep-07 16:30N 33°46' W 118°16'0 0.0
2017-Sep-07 16:01N 33°46' W 118°16'0 0.0
2017-Sep-07 15:31N 33°46' W 118°16'0 0.0
2017-Sep-07 15:01N 33°46' W 118°16'0 0.0
2017-Sep-07 14:31N 33°46' W 118°16'0 0.0
2017-Sep-07 14:01N 33°46' W 118°16'0 0.0
2017-Sep-07 13:31N 33°46' W 118°16'0 0.0
2017-Sep-07 13:01N 33°46' W 118°16'0 0.0
2017-Sep-07 12:31N 33°46' W 118°16'0 0.0
2017-Sep-07 12:01N 33°46' W 118°16'0 0.0
2017-Sep-07 11:30N 33°46' W 118°16'0 0.0
2017-Sep-07 11:01N 33°46' W 118°16'0 0.0
2017-Sep-07 10:31N 33°46' W 118°16'0 0.0
2017-Sep-07 10:01N 33°46' W 118°16'0 0.0
2017-Sep-07 09:31N 33°46' W 118°16'0 0.0
2017-Sep-07 09:01N 33°46' W 118°16'0 0.0
2017-Sep-07 08:31N 33°46' W 118°16'0 0.0
2017-Sep-07 08:01N 33°46' W 118°16'0 0.0
2017-Sep-07 07:31N 33°46' W 118°16'0 0.0
2017-Sep-07 07:00N 33°46' W 118°16'0 0.0
2017-Sep-07 06:30N 33°46' W 118°16'0 0.0
2017-Sep-07 06:01N 33°46' W 118°16'0 0.0
2017-Sep-07 05:31N 33°46' W 118°16'0 0.0
2017-Sep-07 05:00N 33°46' W 118°16'0 0.0
2017-Sep-07 04:31N 33°46' W 118°16'0 0.0
2017-Sep-07 04:00N 33°46' W 118°16'0 0.0
2017-Sep-07 03:31N 33°46' W 118°16'0 0.0
2017-Sep-07 03:01N 33°46' W 118°16'0 0.0
2017-Sep-07 02:30N 33°46' W 118°16'0 0.0
2017-Sep-07 02:01N 33°46' W 118°16'0 0.0
2017-Sep-07 01:31N 33°46' W 118°16'0 0.0
2017-Sep-07 01:01N 33°46' W 118°16'0 0.0
2017-Sep-07 00:31N 33°46' W 118°16'0 0.0
2017-Sep-07 00:00N 33°46' W 118°16'0 0.0
2017-Sep-06 23:31N 33°46' W 118°16'0 0.0
2017-Sep-06 23:00N 33°46' W 118°16'0 0.0
2017-Sep-06 22:30N 33°46' W 118°16'0 0.0
2017-Sep-06 22:01N 33°46' W 118°16'0 0.0
2017-Sep-06 21:31N 33°46' W 118°16'0 0.0
2017-Sep-06 21:01N 33°46' W 118°16'0 0.0
2017-Sep-06 20:31N 33°46' W 118°16'0 0.0
2017-Sep-06 20:01N 33°46' W 118°16'0 0.0
2017-Sep-06 19:31N 33°46' W 118°16'0 0.0
2017-Sep-06 19:01N 33°46' W 118°16'0 0.0
2017-Sep-06 18:31N 33°46' W 118°16'0 0.0
2017-Sep-06 18:01N 33°46' W 118°16'0 0.0
2017-Sep-06 17:31N 33°46' W 118°16'0 0.0
2017-Sep-06 17:00N 33°46' W 118°16'0 0.0
2017-Sep-06 16:30N 33°46' W 118°16'0 0.0
2017-Sep-06 16:00N 33°46' W 118°16'0 0.0
2017-Sep-06 15:31N 33°46' W 118°16'0 0.0
2017-Sep-06 15:01N 33°46' W 118°16'0 0.0
2017-Sep-06 14:31N 33°46' W 118°16'0 0.0
2017-Sep-06 14:01N 33°46' W 118°16'0 0.0
2017-Sep-06 13:31N 33°46' W 118°16'0 0.0
2017-Sep-06 13:00N 33°46' W 118°16'0 0.7
2017-Sep-06 12:30N 33°45' W 118°17'1 1.9
2017-Sep-06 12:01N 33°45' W 118°17'3 6.5
2017-Sep-06 11:31N 33°42' W 118°14'4 7.8
2017-Sep-06 11:00N 33°38' W 118°15'4 7.5
2017-Sep-06 10:30N 33°36' W 118°19'510.9
2017-Sep-06 10:01N 33°36' W 118°25'611.5
2017-Sep-06 09:30N 33°35' W 118°32'612.0
2017-Sep-06 09:01N 33°36' W 118°39'611.9
2017-Sep-06 08:31N 33°37' W 118°47'612.0
2017-Sep-06 08:00N 33°37' W 118°54'611.9
2017-Sep-06 07:31N 33°38' W 119°01'612.9
2017-Sep-06 07:00N 33°38' W 119°09'1020.2
2017-Sep-06 06:31N 33°39' W 119°21'814.7
2017-Sep-06 05:59N 33°40' W 119°30'510.0
2017-Sep-06 05:30N 33°41' W 119°36'510.1
2017-Sep-06 05:00N 33°41' W 119°42'510.0
2017-Sep-06 04:30N 33°41' W 119°48'510.0
2017-Sep-06 04:00N 33°42' W 119°54'5 9.7
2017-Sep-06 03:30N 33°42' W 119°59'11 9.9
2017-Sep-06 02:22N 33°44' W 120°13'4 9.8
2017-Sep-06 02:00N 33°44' W 120°17'5 9.2
2017-Sep-06 01:30N 33°45' W 120°23'5 9.4
2017-Sep-06 00:58N 33°45' W 120°29'510.2
2017-Sep-06 00:30N 33°46' W 120°34'5 9.5
2017-Sep-06 00:00N 33°47' W 120°40'3 6.7
2017-Sep-05 23:30N 33°48' W 120°43'510.1
2017-Sep-05 23:00N 33°49' W 120°50'713.4
2017-Sep-05 22:28N 33°50' W 120°58'715.8
2017-Sep-05 22:01N 33°52' W 121°06'815.5
2017-Sep-05 21:30N 33°53' W 121°16'815.3
2017-Sep-05 20:59N 33°54' W 121°25'815.1
2017-Sep-05 20:27N 33°56' W 121°35'715.2
2017-Sep-05 20:00N 33°57' W 121°43'815.3
2017-Sep-05 19:31N 33°58' W 121°52'815.5
2017-Sep-05 19:00N 33°59' W 122°01'815.4
2017-Sep-05 18:31N 34°01' W 122°10'815.3
2017-Sep-05 18:00N 34°02' W 122°19'815.4
2017-Sep-05 17:31N 34°03' W 122°28'815.4
2017-Sep-05 17:01N 34°05' W 122°38'1015.6
2017-Sep-05 16:20N 34°06' W 122°50'715.5
2017-Sep-05 15:54N 34°08' W 122°58'1615.3
2017-Sep-05 14:52N 34°10' W 123°17'815.4
2017-Sep-05 14:22N 34°12' W 123°26'2115.2
2017-Sep-05 13:01N 34°15' W 123°51'215.3
2017-Sep-05 12:55N 34°15' W 123°52'815.3
2017-Sep-05 12:25N 34°17' W 124°02'18716.2
2017-Sep-05 00:52N 35°33' W 127°30'718.7
2017-Sep-05 00:30N 35°36' W 127°37'4620.4
2017-Sep-04 22:16N 35°59' W 128°25'620.7
2017-Sep-04 22:00N 36°02' W 128°31'1320.9
2017-Sep-04 21:23N 36°08' W 128°45'821.0
2017-Sep-04 21:00N 36°12' W 128°54'1121.4
2017-Sep-04 20:30N 36°18' W 129°06'1121.2
2017-Sep-04 20:00N 36°23' W 129°17'2120.8
2017-Sep-04 19:00N 36°33' W 129°40'2320.7
2017-Sep-04 17:52N 36°45' W 130°05'720.4
2017-Sep-04 17:30N 36°48' W 130°13'1020.4
2017-Sep-04 17:00N 36°53' W 130°24'1020.2
2017-Sep-04 16:30N 36°58' W 130°35'1020.2
2017-Sep-04 16:00N 37°03' W 130°46'1120.3
2017-Sep-04 15:28N 37°08' W 130°58'1420.3
2017-Sep-04 14:48N 37°15' W 131°13'720.4
2017-Sep-04 14:28N 37°18' W 131°21'920.4
2017-Sep-04 14:00N 37°23' W 131°31'1120.6
2017-Sep-04 13:29N 37°27' W 131°43'1020.7
2017-Sep-04 13:00N 37°32' W 131°54'1020.4
2017-Sep-04 12:30N 37°37' W 132°05'4820.6
2017-Sep-04 10:09N 37°59' W 132°60'320.5
2017-Sep-04 10:00N 38°01' W 133°03'1020.4
2017-Sep-04 09:30N 38°05' W 133°15'1020.5
2017-Sep-04 09:00N 38°10' W 133°26'1220.6
2017-Sep-04 08:26N 38°15' W 133°39'1120.3
2017-Sep-04 07:54N 38°20' W 133°52'1620.3
2017-Sep-04 07:08N 38°27' W 134°10'320.1
2017-Sep-04 07:00N 38°28' W 134°12'1220.3
2017-Sep-04 06:26N 38°34' W 134°26'1020.2
2017-Sep-04 05:57N 38°38' W 134°37'1320.3
2017-Sep-04 05:18N 38°44' W 134°52'  

Dump ship's entire track history